createdAt,value
2022-12-15T00:00:18.495Z,-4.6
2022-12-15T00:05:18.485Z,-4.6
2022-12-15T00:10:18.479Z,-4.6
2022-12-15T00:15:18.510Z,-4.7
2022-12-15T00:20:18.494Z,-4.8
2022-12-15T00:25:18.476Z,-4.8
2022-12-15T00:30:18.464Z,-4.8
2022-12-15T00:35:18.478Z,-4.9
2022-12-15T00:40:18.586Z,-4.9
2022-12-15T00:45:18.616Z,-5
2022-12-15T00:50:18.592Z,-5
2022-12-15T00:55:18.679Z,-5.1
2022-12-15T01:00:18.784Z,-5.1
2022-12-15T01:05:18.802Z,-5.1
2022-12-15T01:10:18.842Z,-5.2
2022-12-15T01:15:18.927Z,-5.2
2022-12-15T01:20:18.936Z,-5.3
2022-12-15T01:25:19.111Z,-5.3
2022-12-15T01:30:19.067Z,-5.3
2022-12-15T01:35:19.410Z,-5.3
2022-12-15T01:40:19.400Z,-5.3
2022-12-15T01:45:19.206Z,-5.3
2022-12-15T01:50:19.351Z,-5.3
2022-12-15T01:55:19.438Z,-5.4
2022-12-15T02:00:19.759Z,-5.4
2022-12-15T02:05:19.535Z,-5.4
2022-12-15T02:10:19.479Z,-5.4
2022-12-15T02:15:19.437Z,-5.5
2022-12-15T02:20:19.472Z,-5.5
2022-12-15T02:25:19.344Z,-5.6
2022-12-15T02:30:19.403Z,-5.6
2022-12-15T02:35:19.584Z,-5.6
2022-12-15T02:40:19.780Z,-5.6
2022-12-15T02:45:19.705Z,-5.7
2022-12-15T02:50:19.678Z,-5.8
2022-12-15T02:55:19.707Z,-5.8
2022-12-15T03:00:19.768Z,-5.8
2022-12-15T03:05:19.587Z,-5.9
2022-12-15T03:10:19.580Z,-5.9
2022-12-15T03:15:19.599Z,-5.9
2022-12-15T03:20:19.605Z,-5.9
2022-12-15T03:25:19.596Z,-6
2022-12-15T03:30:19.607Z,-6
2022-12-15T03:35:19.797Z,-6.1
2022-12-15T03:40:19.851Z,-6.1
2022-12-15T03:45:19.805Z,-6.1
2022-12-15T03:50:19.794Z,-6.1
2022-12-15T03:55:20.076Z,-6.1
2022-12-15T04:00:19.979Z,-6.1
2022-12-15T04:05:19.888Z,-6
2022-12-15T04:10:19.898Z,-6
2022-12-15T04:15:19.950Z,-6
2022-12-15T04:20:20.057Z,-5.9
2022-12-15T04:25:20.121Z,-5.9
2022-12-15T04:30:20.115Z,-5.9
2022-12-15T04:35:20.185Z,-5.9
2022-12-15T04:40:20.388Z,-5.9
2022-12-15T04:45:20.743Z,-5.9
2022-12-15T04:50:20.295Z,-5.9
2022-12-15T04:55:20.290Z,-5.9
2022-12-15T05:00:20.321Z,-5.8
2022-12-15T05:05:20.480Z,-5.8
2022-12-15T05:10:20.455Z,-5.8
2022-12-15T05:15:20.522Z,-5.8
2022-12-15T05:20:20.553Z,-5.7
2022-12-15T05:25:20.661Z,-5.7
2022-12-15T05:30:20.547Z,-5.7
2022-12-15T05:35:20.729Z,-5.6
2022-12-15T05:40:20.973Z,-5.6
2022-12-15T05:45:20.822Z,-5.6
2022-12-15T05:50:20.668Z,-5.6
2022-12-15T05:55:20.917Z,-5.6
2022-12-15T06:00:20.916Z,-5.6
2022-12-15T06:05:20.973Z,-5.5
2022-12-15T06:10:20.961Z,-5.5
2022-12-15T06:15:20.916Z,-5.5
2022-12-15T06:20:20.938Z,-5.5
2022-12-15T06:25:20.983Z,-5.5
2022-12-15T06:30:20.843Z,-5.5
2022-12-15T06:35:20.873Z,-5.5
2022-12-15T06:40:21.049Z,-5.5
2022-12-15T06:45:20.985Z,-5.4
2022-12-15T06:50:20.989Z,-5.4
2022-12-15T06:55:20.987Z,-5.5
2022-12-15T07:00:21.042Z,-5.5
2022-12-15T07:05:21.055Z,-5.5
2022-12-15T07:10:20.981Z,-5.5
2022-12-15T07:15:21.065Z,-5.5
2022-12-15T07:20:25.519Z,-5.5
2022-12-15T07:25:21.067Z,-5.4
2022-12-15T07:30:21.009Z,-5.5
2022-12-15T07:35:21.019Z,-5.5
2022-12-15T07:40:21.232Z,-5.4
2022-12-15T07:45:21.127Z,-5.4
2022-12-15T07:50:20.984Z,-5.4
2022-12-15T07:55:32.452Z,-5.4
2022-12-15T08:00:21.109Z,-5.4
2022-12-15T08:05:20.991Z,-5.4
2022-12-15T08:10:21.061Z,-5.4
2022-12-15T08:15:21.089Z,-5.4
2022-12-15T08:20:21.106Z,-5.4
2022-12-15T08:25:21.079Z,-5.4
2022-12-15T08:30:21.069Z,-5.3
2022-12-15T08:35:47.237Z,-5.3
2022-12-15T08:40:21.166Z,-5.3
2022-12-15T08:45:21.129Z,-5.3
2022-12-15T08:50:21.132Z,-5.3
2022-12-15T08:55:22.567Z,-5.2
2022-12-15T09:00:21.365Z,-5.1
2022-12-15T09:05:21.398Z,-5.1
2022-12-15T09:10:21.400Z,-5
2022-12-15T09:15:29.818Z,-4.9
2022-12-15T09:20:21.618Z,-4.8
2022-12-15T09:25:21.625Z,-4.8
2022-12-15T09:30:21.604Z,-4.7
2022-12-15T09:35:21.753Z,-4.6
2022-12-15T09:40:21.518Z,-4.5
2022-12-15T09:45:21.714Z,-4.4
2022-12-15T09:50:21.794Z,-4.4
2022-12-15T09:55:22.058Z,-4.3
2022-12-15T10:00:22.067Z,-4.2
2022-12-15T10:05:21.780Z,-4.1
2022-12-15T10:10:22.114Z,-4
2022-12-15T10:15:22.053Z,-3.9
2022-12-15T10:20:22.093Z,-3.9
2022-12-15T10:25:27.791Z,-3.8
2022-12-15T10:30:22.197Z,-3.7
2022-12-15T10:35:22.307Z,-3.6
2022-12-15T10:40:22.275Z,-3.6
2022-12-15T10:45:22.447Z,-3.5
2022-12-15T10:50:24.678Z,-3.4
2022-12-15T10:55:22.213Z,-3.4
2022-12-15T11:00:22.422Z,-3.3
2022-12-15T11:05:22.373Z,-3.3
2022-12-15T11:10:22.484Z,-3.2
2022-12-15T11:15:22.374Z,-3.1
2022-12-15T11:20:22.300Z,-3
2022-12-15T11:25:22.287Z,-2.9
2022-12-15T11:30:22.294Z,-2.9
2022-12-15T11:35:22.306Z,-2.8
2022-12-15T11:40:22.558Z,-2.8
2022-12-15T11:45:22.542Z,-2.7
2022-12-15T11:50:22.522Z,-2.6
2022-12-15T11:55:27.742Z,-2.6
2022-12-15T12:00:22.523Z,-2.6
2022-12-15T12:05:22.541Z,-2.5
2022-12-15T12:10:22.553Z,-2.4
2022-12-15T12:15:22.530Z,-2.4
2022-12-15T12:20:22.608Z,-2.3
2022-12-15T12:25:22.644Z,-2.3
2022-12-15T12:30:22.631Z,-2.2
2022-12-15T12:35:30.273Z,-2.1
2022-12-15T12:40:22.813Z,-2
2022-12-15T12:45:22.836Z,-1.9
2022-12-15T12:50:22.693Z,-1.8
2022-12-15T12:55:22.947Z,-1.7
2022-12-15T13:00:23.078Z,-1.6
2022-12-15T13:05:23.025Z,-1.5
2022-12-15T13:10:23.036Z,-1.4
2022-12-15T13:15:23.074Z,-1.3
2022-12-15T13:20:23.238Z,-1.1
2022-12-15T13:25:22.965Z,-1.1
2022-12-15T13:30:23.084Z,-0.9
2022-12-15T13:35:23.007Z,-0.9
2022-12-15T13:40:23.203Z,-0.8
2022-12-15T13:45:23.118Z,-0.8
2022-12-15T13:50:23.012Z,-0.7
2022-12-15T13:55:27.746Z,-0.6
2022-12-15T14:00:23.018Z,-0.6
2022-12-15T14:05:23.169Z,-0.6
2022-12-15T14:10:23.144Z,-0.5
2022-12-15T14:15:23.263Z,-0.4
2022-12-15T14:20:23.295Z,-0.4
2022-12-15T14:25:23.275Z,-0.4
2022-12-15T14:30:23.249Z,-0.4
2022-12-15T14:35:23.292Z,-0.3
2022-12-15T14:45:23.314Z,-0.3
2022-12-15T14:50:25.227Z,-0.3
2022-12-15T14:55:23.316Z,-0.3
2022-12-15T15:00:23.321Z,-0.3
2022-12-15T15:03:15.236Z,-0.3
2022-12-15T15:05:23.382Z,-0.3
2022-12-15T15:10:23.284Z,-0.3
2022-12-15T15:15:23.165Z,-0.3
2022-12-15T15:20:23.196Z,-0.3
2022-12-15T15:25:23.207Z,-0.3
2022-12-15T15:30:23.181Z,-0.3
2022-12-15T15:35:23.315Z,-0.3
2022-12-15T15:40:23.200Z,-0.3
2022-12-15T15:45:23.213Z,-0.3
2022-12-15T15:50:23.172Z,-0.3
2022-12-15T15:55:23.248Z,-0.3
2022-12-15T16:00:23.310Z,-0.3
2022-12-15T16:05:23.159Z,-0.4
2022-12-15T16:10:23.163Z,-0.4
2022-12-15T16:15:23.162Z,-0.4
2022-12-15T16:20:23.214Z,-0.4
2022-12-15T16:25:23.140Z,-0.4
2022-12-15T16:30:23.137Z,-0.4
2022-12-15T16:35:23.154Z,-0.5
2022-12-15T16:40:23.187Z,-0.5
2022-12-15T16:45:23.379Z,-0.5
2022-12-15T16:50:23.305Z,-0.6
2022-12-15T16:55:23.160Z,-0.6
2022-12-15T17:00:23.225Z,-0.6
2022-12-15T17:05:23.329Z,-0.6
2022-12-15T17:10:23.323Z,-0.7
2022-12-15T17:15:23.314Z,-0.7
2022-12-15T17:20:31.018Z,-0.8
2022-12-15T17:25:37.771Z,-0.8
2022-12-15T17:30:23.268Z,-0.8
2022-12-15T17:35:23.301Z,-0.8
2022-12-15T17:40:23.269Z,-0.8
2022-12-15T17:45:23.457Z,-0.9
2022-12-15T17:50:23.381Z,-0.9
2022-12-15T17:55:23.349Z,-0.9
2022-12-15T18:00:23.280Z,-0.9
2022-12-15T18:05:23.236Z,-0.9
2022-12-15T18:10:23.243Z,-1
2022-12-15T18:15:23.260Z,-1
2022-12-15T18:20:23.277Z,-1
2022-12-15T18:25:23.252Z,-1.1
2022-12-15T18:30:23.237Z,-1.1
2022-12-15T18:35:23.238Z,-1.1
2022-12-15T18:40:23.377Z,-1.1
2022-12-15T18:45:23.219Z,-1.1
2022-12-15T18:50:23.285Z,-1.1
2022-12-15T18:55:23.218Z,-1.1
2022-12-15T19:00:23.247Z,-1.2
2022-12-15T19:05:23.233Z,-1.2
2022-12-15T19:10:23.244Z,-1.2
2022-12-15T19:15:23.222Z,-1.3
2022-12-15T19:20:23.265Z,-1.3
2022-12-15T19:25:25.698Z,-1.3
2022-12-15T19:30:23.235Z,-1.3
2022-12-15T19:35:23.227Z,-1.3
2022-12-15T19:40:23.244Z,-1.3
2022-12-15T19:45:23.346Z,-1.4
2022-12-15T19:50:23.213Z,-1.4
2022-12-15T19:55:23.208Z,-1.4
2022-12-15T20:00:23.802Z,-1.4
2022-12-15T20:05:23.215Z,-1.4
2022-12-15T20:10:27.834Z,-1.5
2022-12-15T20:15:23.193Z,-1.5
2022-12-15T20:20:23.243Z,-1.6
2022-12-15T20:25:23.204Z,-1.6
2022-12-15T20:30:23.203Z,-1.6
2022-12-15T20:35:23.238Z,-1.6
2022-12-15T20:40:23.286Z,-1.7
2022-12-15T20:45:23.205Z,-1.7
2022-12-15T20:50:23.203Z,-1.8
2022-12-15T20:55:23.209Z,-1.8
2022-12-15T21:00:23.232Z,-1.8
2022-12-15T21:05:23.204Z,-1.8
2022-12-15T21:10:23.204Z,-1.8
2022-12-15T21:15:23.181Z,-1.9
2022-12-15T21:20:23.217Z,-1.9
2022-12-15T21:25:23.243Z,-1.9
2022-12-15T21:30:23.189Z,-1.9
2022-12-15T21:35:25.117Z,-2
2022-12-15T21:40:23.199Z,-2
2022-12-15T21:45:23.177Z,-2.1
2022-12-15T21:50:23.176Z,-2.1
2022-12-15T21:55:23.179Z,-2.1
2022-12-15T22:00:23.197Z,-2.1
2022-12-15T22:05:23.188Z,-2.2
2022-12-15T22:10:23.187Z,-2.2
2022-12-15T22:15:23.186Z,-2.3
2022-12-15T22:20:23.219Z,-2.3
2022-12-15T22:25:23.188Z,-2.3
2022-12-15T22:30:23.183Z,-2.3
2022-12-15T22:35:23.190Z,-2.4
2022-12-15T22:40:23.271Z,-2.4
2022-12-15T22:45:23.189Z,-2.4
2022-12-15T22:50:23.191Z,-2.4
2022-12-15T22:55:23.167Z,-2.5
2022-12-15T23:00:23.224Z,-2.5
2022-12-15T23:05:23.190Z,-2.6
2022-12-15T23:10:23.167Z,-2.6
2022-12-15T23:15:23.167Z,-2.6
2022-12-15T23:20:23.193Z,-2.7
2022-12-15T23:25:23.171Z,-2.7
2022-12-15T23:30:23.192Z,-2.8
2022-12-15T23:35:23.162Z,-2.8
2022-12-15T23:40:23.270Z,-2.8
2022-12-15T23:45:23.297Z,-2.9
2022-12-15T23:50:23.166Z,-2.9
2022-12-15T23:55:23.168Z,-2.9
